Time;durP1;ratioP1;P1;durP2;ratioP2;P2;SDS_P1;SDS_P2;PMS_P1;PMS_P2;Temp;Humidity;BMP_temperature;BMP_pressure;BME280_temperature;BME280_humidity;BME280_pressure;Samples;Min_cycle;Max_cycle;Signal;HPM_P1;HPM_P2
2023/06/29 00:00:15;;;;;;;22.98;16.15;;;21.70;75.90;;;;;;5075956;28;20172;-66
2023/06/29 00:02:41;;;;;;;21.83;16.40;;;21.80;79.30;;;;;;5075161;28;20212;-65
2023/06/29 00:05:08;;;;;;;26.52;16.45;;;21.80;72.90;;;;;;5075755;28;20224;-65
2023/06/29 00:07:34;;;;;;;22.20;16.10;;;21.80;72.70;;;;;;5075706;28;20255;-66
2023/06/29 00:10:00;;;;;;;19.80;16.33;;;21.80;71.20;;;;;;5075501;28;20173;-66
2023/06/29 00:12:27;;;;;;;21.98;16.67;;;21.70;69.70;;;;;;5075180;28;20191;-65
2023/06/29 00:14:52;;;;;;;21.38;16.40;;;21.80;71.50;;;;;;5074972;28;20169;-65
2023/06/29 00:17:19;;;;;;;21.83;17.23;;;21.70;71.60;;;;;;5075182;28;20292;-66
2023/06/29 00:19:47;;;;;;;21.95;17.05;;;21.60;74.60;;;;;;5075514;28;20168;-64
2023/06/29 00:22:13;;;;;;;20.50;17.02;;;21.50;79.50;;;;;;5075278;28;20204;-65
2023/06/29 00:24:42;;;;;;;23.60;16.88;;;21.50;78.90;;;;;;5075405;28;20203;-66
2023/06/29 00:27:17;;;;;;;23.38;17.42;;;21.40;84.30;;;;;;5075210;28;20164;-66
2023/06/29 00:29:43;;;;;;;22.23;16.85;;;21.40;84.70;;;;;;5075170;28;20164;-66
2023/06/29 00:32:10;;;;;;;21.80;17.75;;;21.40;84.30;;;;;;5074758;28;20164;-65
2023/06/29 00:34:36;;;;;;;22.77;17.60;;;21.40;89.10;;;;;;5075313;28;20172;-65
2023/06/29 00:37:01;;;;;;;23.92;17.73;;;21.30;92.70;;;;;;5074941;28;20282;-66
2023/06/29 00:39:27;;;;;;;23.52;17.50;;;21.30;93.70;;;;;;5074834;28;20224;-66
2023/06/29 00:41:56;;;;;;;21.13;17.13;;;21.20;96.70;;;;;;5074667;28;20222;-66
2023/06/29 00:44:22;;;;;;;21.90;17.17;;;21.20;99.30;;;;;;5074845;28;20239;-65
2023/06/29 00:46:49;;;;;;;23.27;17.60;;;21.20;99.00;;;;;;5074490;28;20179;-66
2023/06/29 00:49:15;;;;;;;25.83;17.75;;;21.10;99.90;;;;;;5074755;28;20171;-65
2023/06/29 00:51:41;;;;;;;21.98;17.25;;;21.00;99.90;;;;;;5074618;28;20169;-65
2023/06/29 00:54:07;;;;;;;26.25;19.42;;;21.00;99.90;;;;;;5074541;28;20164;-65
2023/06/29 00:56:34;;;;;;;22.10;17.73;;;21.00;99.90;;;;;;5074418;28;20261;-65
2023/06/29 00:59:00;;;;;;;24.13;18.15;;;21.00;99.90;;;;;;5074409;28;20169;-66
2023/06/29 01:01:27;;;;;;;27.00;18.42;;;21.00;99.90;;;;;;5074005;28;20528;-66
2023/06/29 01:03:57;;;;;;;23.13;18.38;;;21.10;99.90;;;;;;5074438;28;20169;-66
2023/06/29 01:06:31;;;;;;;27.50;20.02;;;21.00;99.90;;;;;;5074542;28;20176;-65
2023/06/29 01:09:05;;;;;;;25.65;20.13;;;20.90;99.90;;;;;;5074323;28;20698;-65
2023/06/29 01:11:33;;;;;;;24.45;20.08;;;20.90;99.90;;;;;;5074285;28;20516;-66
2023/06/29 01:14:03;;;;;;;26.42;20.85;;;20.90;99.90;;;;;;5074251;28;20203;-66
2023/06/29 01:16:33;;;;;;;27.52;20.85;;;20.90;99.90;;;;;;5073716;28;20212;-66
2023/06/29 01:19:04;;;;;;;31.75;23.85;;;21.00;99.90;;;;;;5074348;28;20168;-65
2023/06/29 01:21:31;;;;;;;29.67;21.90;;;21.00;96.70;;;;;;5073739;28;20273;-66
2023/06/29 01:23:59;;;;;;;30.95;22.75;;;21.00;97.90;;;;;;5073900;28;20169;-64
2023/06/29 01:26:25;;;;;;;30.60;22.60;;;21.00;97.00;;;;;;5073054;28;20695;-66
2023/06/29 01:28:51;;;;;;;29.42;21.95;;;21.00;98.60;;;;;;5073798;28;20193;-65
2023/06/29 01:31:16;;;;;;;28.08;21.98;;;21.00;96.60;;;;;;5056316;28;20562;-65
2023/06/29 01:33:42;;;;;;;28.60;20.55;;;21.00;96.20;;;;;;5073889;28;20255;-65
2023/06/29 01:36:40;;;;;;;27.98;20.95;;;20.90;97.80;;;;;;5073695;28;20556;-65
2023/06/29 01:39:12;;;;;;;28.83;21.45;;;20.80;99.90;;;;;;4972796;28;20267;-65
2023/06/29 01:41:40;;;;;;;30.67;22.15;;;20.80;99.90;;;;;;4972932;28;20216;-65
2023/06/29 01:44:09;;;;;;;29.35;21.40;;;20.90;99.90;;;;;;4972629;28;20183;-65
2023/06/29 01:46:35;;;;;;;32.88;25.63;;;20.90;99.90;;;;;;4972895;28;20235;-65
2023/06/29 01:49:01;;;;;;;27.13;21.05;;;20.90;99.90;;;;;;4972941;28;20698;-65
2023/06/29 01:51:27;;;;;;;33.53;24.05;;;20.90;99.90;;;;;;4972831;28;20216;-65
2023/06/29 01:53:53;;;;;;;28.50;21.27;;;20.90;99.90;;;;;;4972746;28;20176;-66
2023/06/29 01:56:19;;;;;;;31.75;21.98;;;20.90;99.90;;;;;;4972681;28;20220;-65
2023/06/29 01:58:44;;;;;;;32.38;23.65;;;20.70;99.90;;;;;;4972580;28;20183;-65
2023/06/29 02:01:10;;;;;;;29.70;21.92;;;20.80;99.90;;;;;;4972368;28;20176;-65
2023/06/29 02:03:36;;;;;;;32.38;21.92;;;20.70;99.90;;;;;;4972697;28;20639;-65
2023/06/29 02:06:01;;;;;;;29.08;21.98;;;20.80;99.90;;;;;;4972571;28;20180;-66
2023/06/29 02:08:27;;;;;;;30.13;22.10;;;20.60;99.90;;;;;;4972494;28;20188;-64
2023/06/29 02:10:52;;;;;;;28.92;22.60;;;20.60;99.90;;;;;;4972544;28;20723;-64
2023/06/29 02:13:18;;;;;;;27.45;21.90;;;20.60;99.90;;;;;;4972144;28;20538;-66
2023/06/29 02:15:44;;;;;;;27.88;21.58;;;20.60;99.90;;;;;;5010882;28;20218;-66
2023/06/29 02:18:09;;;;;;;30.10;21.45;;;20.60;99.90;;;;;;5033335;28;20611;-65
2023/06/29 02:20:35;;;;;;;33.17;23.02;;;20.50;99.90;;;;;;5033254;28;20188;-65
2023/06/29 02:23:00;;;;;;;29.55;22.08;;;20.50;99.90;;;;;;5032961;28;20221;-65
2023/06/29 02:25:26;;;;;;;29.27;21.73;;;20.40;99.90;;;;;;5033364;28;20178;-65
2023/06/29 02:27:52;;;;;;;30.63;21.88;;;20.40;99.90;;;;;;5032878;28;20180;-65
2023/06/29 02:30:17;;;;;;;27.52;21.73;;;20.30;99.90;;;;;;5033171;28;20170;-65
2023/06/29 02:32:43;;;;;;;31.30;23.02;;;20.20;99.90;;;;;;5032813;28;20640;-65
2023/06/29 02:35:09;;;;;;;31.02;22.08;;;20.20;99.90;;;;;;5033181;28;20216;-65
2023/06/29 02:37:34;;;;;;;29.95;22.55;;;20.10;99.90;;;;;;5037239;28;20181;-65
2023/06/29 02:40:00;;;;;;;32.03;22.33;;;20.10;99.90;;;;;;5072843;28;20169;-65
2023/06/29 02:42:26;;;;;;;31.08;22.55;;;20.10;99.90;;;;;;5072530;28;20615;-65
2023/06/29 02:44:52;;;;;;;32.88;23.17;;;20.10;99.90;;;;;;5072878;28;20172;-65
2023/06/29 02:47:17;;;;;;;27.23;21.33;;;20.20;99.90;;;;;;5072742;28;20282;-65
2023/06/29 02:49:43;;;;;;;30.58;22.83;;;20.30;99.90;;;;;;5072763;28;20233;-65
2023/06/29 02:52:08;;;;;;;31.83;22.42;;;20.20;99.90;;;;;;5072710;28;20180;-65
2023/06/29 02:54:34;;;;;;;29.65;22.60;;;20.20;99.90;;;;;;5072711;28;20623;-65
2023/06/29 02:56:59;;;;;;;32.67;22.52;;;20.20;99.90;;;;;;5072329;28;20208;-66
2023/06/29 02:59:25;;;;;;;28.60;20.88;;;20.10;99.90;;;;;;5072826;28;20638;-64
2023/06/29 03:01:51;;;;;;;26.98;21.50;;;20.20;99.90;;;;;;5072689;28;20169;-64
2023/06/29 03:04:16;;;;;;;29.30;21.85;;;20.20;99.90;;;;;;5072932;28;20628;-64
2023/06/29 03:06:42;;;;;;;31.40;22.10;;;20.20;99.90;;;;;;5072939;28;20173;-66
2023/06/29 03:09:07;;;;;;;27.20;22.05;;;20.20;99.90;;;;;;5072583;28;20631;-65
2023/06/29 03:11:33;;;;;;;28.98;22.58;;;20.20;99.90;;;;;;5072307;28;20250;-64
2023/06/29 03:13:58;;;;;;;26.73;21.23;;;20.20;99.90;;;;;;5072614;28;20181;-66
2023/06/29 03:16:25;;;;;;;28.25;21.25;;;20.20;99.90;;;;;;5072216;28;20215;-65
2023/06/29 03:18:51;;;;;;;26.80;21.25;;;20.20;99.90;;;;;;5072749;28;20226;-64
2023/06/29 03:21:19;;;;;;;29.05;22.13;;;20.20;99.90;;;;;;5072379;28;20588;-63
2023/06/29 03:23:45;;;;;;;28.52;21.45;;;20.20;99.90;;;;;;5072658;28;20172;-65
2023/06/29 03:26:12;;;;;;;30.45;21.90;;;20.20;99.90;;;;;;5071983;28;20179;-65
2023/06/29 03:28:37;;;;;;;27.77;21.30;;;20.20;99.90;;;;;;5072361;28;20161;-64
2023/06/29 03:31:03;;;;;;;27.67;21.20;;;20.20;99.90;;;;;;5072368;28;20210;-65
2023/06/29 03:33:29;;;;;;;27.98;20.98;;;20.10;99.90;;;;;;5072468;28;20651;-65
2023/06/29 03:35:54;;;;;;;27.13;20.35;;;20.10;99.90;;;;;;5072239;28;20295;-65
2023/06/29 03:38:20;;;;;;;27.42;21.67;;;20.00;99.90;;;;;;5071803;28;20251;-65
2023/06/29 03:40:46;;;;;;;29.00;20.80;;;19.90;99.90;;;;;;5071816;28;20183;-65
2023/06/29 03:43:11;;;;;;;30.17;21.40;;;19.90;99.90;;;;;;5072461;28;20165;-65
2023/06/29 03:45:37;;;;;;;30.00;21.90;;;19.90;99.90;;;;;;5072107;28;20169;-65
2023/06/29 03:48:02;;;;;;;29.85;20.88;;;19.80;99.90;;;;;;5072478;28;20533;-65
2023/06/29 03:50:28;;;;;;;28.42;20.92;;;19.70;99.90;;;;;;5075897;28;20172;-65
2023/06/29 03:52:54;;;;;;;27.95;20.90;;;19.70;99.90;;;;;;5075744;28;20241;-65
2023/06/29 03:55:21;;;;;;;27.63;20.77;;;19.80;99.90;;;;;;5074404;28;20171;-65
2023/06/29 03:57:46;;;;;;;26.80;21.60;;;19.90;99.90;;;;;;5075470;28;20229;-66
2023/06/29 04:00:12;;;;;;;31.00;22.83;;;19.80;99.90;;;;;;5075485;28;20172;-66
2023/06/29 04:02:38;;;;;;;29.42;21.88;;;19.90;99.90;;;;;;5075426;28;20179;-64
2023/06/29 04:05:04;;;;;;;29.17;22.63;;;19.90;99.90;;;;;;5075292;28;20251;-66
2023/06/29 04:07:30;;;;;;;29.42;21.27;;;19.90;99.90;;;;;;5075068;28;20188;-65
2023/06/29 04:09:55;;;;;;;30.63;22.23;;;20.00;99.90;;;;;;5075007;28;20169;-66
2023/06/29 04:12:21;;;;;;;31.25;22.40;;;20.00;99.90;;;;;;5074636;28;20172;-66
2023/06/29 04:14:46;;;;;;;28.15;21.55;;;20.00;99.90;;;;;;5074869;28;20276;-66
2023/06/29 04:17:12;;;;;;;26.98;20.63;;;20.00;99.90;;;;;;5075330;28;20403;-66
2023/06/29 04:19:37;;;;;;;27.77;21.52;;;20.00;99.90;;;;;;5075187;28;20173;-65
2023/06/29 04:22:03;;;;;;;28.50;22.60;;;19.90;99.90;;;;;;5074765;28;20188;-64
2023/06/29 04:24:29;;;;;;;31.40;22.30;;;20.00;99.90;;;;;;5074356;28;20726;-64
2023/06/29 04:26:54;;;;;;;31.48;22.50;;;20.10;99.90;;;;;;5075048;28;20207;-66
2023/06/29 04:29:20;;;;;;;38.08;23.65;;;20.00;99.90;;;;;;5075222;28;20256;-65
2023/06/29 04:31:46;;;;;;;31.33;22.70;;;20.00;99.90;;;;;;5074547;28;20252;-65
2023/06/29 04:34:17;;;;;;;33.55;23.88;;;20.10;99.90;;;;;;5074756;28;20260;-66
2023/06/29 04:36:46;;;;;;;31.50;23.13;;;20.10;99.90;;;;;;5074881;28;20220;-65
2023/06/29 04:39:13;;;;;;;28.27;21.80;;;20.20;99.90;;;;;;5074145;28;20216;-66
2023/06/29 04:41:40;;;;;;;30.48;21.90;;;20.20;99.90;;;;;;5074617;28;20184;-66
2023/06/29 04:44:08;;;;;;;31.65;23.10;;;20.30;99.90;;;;;;5074236;28;20237;-65
2023/06/29 04:46:38;;;;;;;29.90;22.35;;;20.40;99.90;;;;;;5074738;28;20260;-65
2023/06/29 04:49:06;;;;;;;32.83;23.23;;;20.40;99.90;;;;;;5074704;28;20192;-66
2023/06/29 04:51:34;;;;;;;32.00;23.05;;;20.50;99.90;;;;;;5074034;28;20192;-65
2023/06/29 04:54:00;;;;;;;31.63;22.38;;;20.50;99.90;;;;;;5073705;28;20172;-66
2023/06/29 04:56:25;;;;;;;33.50;24.33;;;20.50;99.90;;;;;;5074130;28;20811;-65
2023/06/29 04:58:51;;;;;;;31.05;23.13;;;20.50;99.10;;;;;;5073893;28;20173;-66
2023/06/29 05:01:16;;;;;;;32.53;23.42;;;20.40;99.90;;;;;;5073640;28;20620;-66
2023/06/29 05:03:42;;;;;;;33.05;23.88;;;20.40;99.90;;;;;;5074245;28;20310;-65
2023/06/29 05:06:08;;;;;;;30.73;23.58;;;20.40;99.90;;;;;;5074054;28;20169;-65
2023/06/29 05:08:33;;;;;;;33.78;24.30;;;20.40;99.90;;;;;;5073760;28;20447;-66
2023/06/29 05:10:59;;;;;;;33.17;24.73;;;20.50;99.90;;;;;;5073554;28;20698;-66
2023/06/29 05:13:25;;;;;;;33.60;23.75;;;20.50;98.20;;;;;;5073134;28;20716;-66
2023/06/29 05:15:51;;;;;;;33.38;24.50;;;20.60;96.70;;;;;;5073601;28;20737;-65
2023/06/29 05:18:16;;;;;;;30.42;23.83;;;20.60;96.50;;;;;;5073525;28;20200;-66
2023/06/29 05:20:42;;;;;;;34.42;25.17;;;20.60;96.90;;;;;;5073335;28;20192;-66
2023/06/29 05:23:09;;;;;;;32.63;24.02;;;20.70;97.40;;;;;;5073454;28;20269;-66
2023/06/29 05:25:35;;;;;;;30.75;24.00;;;21.00;92.50;;;;;;5073408;28;20189;-67
2023/06/29 05:28:01;;;;;;;34.50;24.25;;;21.30;78.50;;;;;;5073148;28;20200;-67
2023/06/29 05:30:27;;;;;;;31.20;23.75;;;21.50;70.10;;;;;;5072317;28;20196;-66
2023/06/29 05:32:52;;;;;;;33.45;23.85;;;21.90;52.10;;;;;;5072832;28;20173;-66
2023/06/29 05:35:18;;;;;;;28.02;22.15;;;22.10;46.80;;;;;;5073618;28;20176;-68
2023/06/29 05:37:45;;;;;;;30.98;22.80;;;22.50;32.40;;;;;;5072194;28;20228;-66
2023/06/29 05:40:11;;;;;;;31.45;23.38;;;22.70;20.60;;;;;;5072969;28;20275;-67
2023/06/29 05:42:37;;;;;;;32.70;22.83;;;22.60;21.50;;;;;;5073153;28;20662;-66
2023/06/29 05:45:03;;;;;;;32.90;23.75;;;22.60;20.70;;;;;;5072836;28;20169;-67
2023/06/29 05:47:28;;;;;;;30.88;23.48;;;22.60;18.40;;;;;;5072501;28;20173;-66
2023/06/29 05:49:54;;;;;;;33.65;24.17;;;22.50;23.80;;;;;;5072279;28;20566;-66
2023/06/29 05:52:20;;;;;;;31.27;23.02;;;22.30;26.00;;;;;;5072383;28;20160;-67
2023/06/29 05:54:45;;;;;;;37.70;24.73;;;22.30;27.80;;;;;;5072387;28;20251;-66
2023/06/29 05:57:11;;;;;;;33.63;24.42;;;22.30;32.70;;;;;;5072659;28;20674;-67
2023/06/29 05:59:36;;;;;;;34.90;25.02;;;22.30;31.20;;;;;;5072043;28;20225;-67
2023/06/29 06:02:02;;;;;;;32.33;23.60;;;22.70;22.60;;;;;;5072164;28;20177;-65
2023/06/29 06:04:28;;;;;;;38.80;24.50;;;22.80;20.30;;;;;;5072083;28;20584;-67
2023/06/29 06:06:53;;;;;;;32.35;23.45;;;23.00;15.90;;;;;;5072306;28;20176;-67
2023/06/29 06:09:19;;;;;;;34.35;24.60;;;22.70;19.20;;;;;;5072382;28;20184;-66
2023/06/29 06:11:44;;;;;;;31.00;23.00;;;22.60;20.40;;;;;;5071293;28;20171;-67
2023/06/29 06:14:10;;;;;;;35.47;23.35;;;22.60;17.10;;;;;;5072835;28;20180;-66
2023/06/29 06:16:36;;;;;;;32.67;23.13;;;22.80;16.40;;;;;;5071563;28;20697;-66
2023/06/29 06:19:01;;;;;;;34.08;24.23;;;22.70;12.10;;;;;;5072000;28;20171;-67
2023/06/29 06:21:27;;;;;;;33.70;23.40;;;22.60;17.40;;;;;;5071620;28;20193;-67
2023/06/29 06:23:53;;;;;;;32.17;24.15;;;22.60;21.10;;;;;;5072119;28;20180;-67
2023/06/29 06:26:19;;;;;;;32.63;23.55;;;22.70;18.70;;;;;;5072459;28;20178;-66
2023/06/29 06:28:44;;;;;;;33.42;22.83;;;22.50;19.90;;;;;;5072206;28;20195;-66
2023/06/29 06:31:12;;;;;;;36.13;23.25;;;22.50;23.40;;;;;;5071893;28;20487;-64
2023/06/29 06:33:39;;;;;;;33.15;23.48;;;22.60;22.30;;;;;;5070708;28;20176;-69
2023/06/29 06:36:07;;;;;;;33.33;23.05;;;22.60;18.60;;;;;;5072048;28;20200;-68
2023/06/29 06:38:32;;;;;;;33.80;24.65;;;22.50;22.70;;;;;;5071279;28;20873;-68
2023/06/29 06:40:58;;;;;;;30.88;23.95;;;22.40;24.40;;;;;;5071278;28;20290;-66
2023/06/29 06:43:24;;;;;;;33.50;23.98;;;22.30;27.00;;;;;;5071572;28;20255;-68
2023/06/29 06:45:51;;;;;;;32.33;23.95;;;22.30;26.60;;;;;;5071966;28;20217;-68
2023/06/29 06:48:17;;;;;;;31.60;24.35;;;22.30;23.80;;;;;;5071473;28;20172;-68
2023/06/29 06:50:42;;;;;;;35.17;23.67;;;22.30;26.60;;;;;;5071534;28;20177;-68
2023/06/29 06:53:08;;;;;;;33.55;24.25;;;22.20;26.40;;;;;;5071279;28;20230;-67
2023/06/29 06:55:34;;;;;;;30.85;23.45;;;22.30;25.70;;;;;;5071360;28;20615;-67
2023/06/29 06:57:59;;;;;;;34.88;23.95;;;22.20;26.70;;;;;;5071179;28;20602;-69
2023/06/29 07:00:26;;;;;;;36.88;24.10;;;22.20;27.40;;;;;;5071577;28;20168;-67
2023/06/29 07:02:52;;;;;;;32.50;23.98;;;22.00;33.70;;;;;;5071389;28;20226;-68
2023/06/29 07:05:17;;;;;;;34.97;24.02;;;22.00;32.50;;;;;;5071314;28;20620;-68
2023/06/29 07:07:45;;;;;;;32.17;24.23;;;22.10;33.30;;;;;;5071190;28;20202;-68
2023/06/29 07:10:12;;;;;;;32.72;23.77;;;22.10;32.20;;;;;;5071388;28;20673;-68
2023/06/29 07:12:37;;;;;;;33.40;24.55;;;22.00;33.90;;;;;;5086787;28;20172;-67
2023/06/29 07:15:04;;;;;;;32.97;24.75;;;22.10;35.40;;;;;;5091967;28;20650;-67
2023/06/29 07:17:30;;;;;;;34.40;23.13;;;22.10;30.80;;;;;;5091110;28;20204;-66
2023/06/29 07:19:56;;;;;;;30.27;23.75;;;22.40;28.40;;;;;;5092088;28;20196;-66
2023/06/29 07:22:21;;;;;;;33.20;25.27;;;22.40;24.10;;;;;;5091223;28;20595;-67
2023/06/29 07:24:47;;;;;;;33.60;23.67;;;22.30;25.70;;;;;;5095246;28;20527;-67
2023/06/29 07:27:13;;;;;;;31.88;24.65;;;22.30;26.80;;;;;;5095613;28;20168;-66
2023/06/29 07:29:42;;;;;;;34.42;24.05;;;22.30;27.60;;;;;;5095214;28;20547;-67
2023/06/29 07:32:08;;;;;;;34.88;23.98;;;22.30;28.70;;;;;;5095323;28;20168;-67
2023/06/29 07:34:34;;;;;;;35.03;23.50;;;22.30;31.30;;;;;;5077225;28;20704;-67
2023/06/29 07:37:00;;;;;;;37.45;24.40;;;22.60;26.80;;;;;;5077319;28;20361;-67
2023/06/29 07:39:27;;;;;;;32.00;25.00;;;22.80;21.40;;;;;;5095430;28;20219;-67
2023/06/29 07:41:53;;;;;;;33.55;23.92;;;22.90;14.10;;;;;;5094939;28;20186;-67
2023/06/29 07:44:18;;;;;;;36.03;25.83;;;22.80;16.10;;;;;;5095633;28;20180;-69
2023/06/29 07:46:44;;;;;;;31.17;25.10;;;22.70;19.90;;;;;;5095485;28;20630;-67
2023/06/29 07:49:09;;;;;;;31.95;24.25;;;22.70;21.30;;;;;;5095671;28;20206;-67
2023/06/29 07:51:35;;;;;;;34.80;25.42;;;22.70;17.30;;;;;;5095347;28;20209;-68
2023/06/29 07:54:02;;;;;;;38.95;25.52;;;22.60;18.50;;;;;;5095368;28;20560;-69
2023/06/29 07:56:28;;;;;;;33.67;24.70;;;22.80;19.60;;;;;;5095258;28;20678;-67
2023/06/29 07:58:54;;;;;;;32.72;26.60;;;22.80;16.00;;;;;;5077470;28;20561;-68
2023/06/29 08:01:20;;;;;;;37.72;25.58;;;22.80;16.50;;;;;;5094255;28;20176;-68
2023/06/29 08:03:46;;;;;;;37.15;25.30;;;22.70;16.10;;;;;;5095211;28;20168;-68
2023/06/29 08:06:11;;;;;;;39.25;26.38;;;22.70;18.90;;;;;;5095049;28;20261;-69
2023/06/29 08:08:38;;;;;;;36.90;26.67;;;22.90;14.70;;;;;;5094788;28;20210;-68
2023/06/29 08:11:03;;;;;;;35.33;25.40;;;23.00;12.20;;;;;;5094658;28;20237;-68
2023/06/29 08:13:29;;;;;;;36.85;26.58;;;23.30;10.40;;;;;;5095457;28;20172;-68
2023/06/29 08:15:54;;;;;;;33.65;25.63;;;23.50;1.00;;;;;;5094396;28;20210;-68
2023/06/29 08:18:20;;;;;;;34.78;26.13;;;23.50;1.00;;;;;;5094976;28;20172;-69
2023/06/29 08:20:46;;;;;;;35.50;26.58;;;23.60;1.00;;;;;;5094756;28;20630;-67
2023/06/29 08:23:13;;;;;;;37.28;26.27;;;23.60;1.00;;;;;;5094981;28;20168;-69
2023/06/29 08:25:38;;;;;;;35.53;26.13;;;23.50;1.00;;;;;;5094670;28;20178;-68
2023/06/29 08:28:04;;;;;;;35.13;26.10;;;23.40;1.00;;;;;;5094906;28;20615;-69
2023/06/29 08:30:30;;;;;;;32.92;26.08;;;23.20;6.50;;;;;;5094220;28;20191;-69
2023/06/29 08:32:55;;;;;;;38.58;26.88;;;23.20;5.40;;;;;;5094295;28;20595;-69
2023/06/29 08:35:21;;;;;;;35.90;26.33;;;23.30;5.90;;;;;;5094132;28;20196;-71
2023/06/29 08:37:47;;;;;;;34.10;25.92;;;23.70;1.50;;;;;;5094263;28;20625;-70
2023/06/29 08:40:12;;;;;;;37.88;27.05;;;23.80;1.00;;;;;;5094889;28;20172;-69
2023/06/29 08:42:39;;;;;;;32.42;25.65;;;23.90;1.00;;;;;;5094724;28;20238;-69
2023/06/29 08:45:06;;;;;;;34.58;26.45;;;24.30;1.00;;;;;;5094527;28;20190;-71
2023/06/29 08:47:34;;;;;;;40.33;26.63;;;24.10;1.00;;;;;;5094249;28;20179;-70
2023/06/29 08:50:03;;;;;;;32.10;25.88;;;23.80;1.00;;;;;;5076298;28;20172;-72
2023/06/29 08:52:32;;;;;;;36.65;27.50;;;23.90;1.00;;;;;;5094572;28;20191;-69
2023/06/29 08:54:58;;;;;;;34.47;26.73;;;23.70;1.00;;;;;;5094234;28;20251;-71
2023/06/29 08:57:24;;;;;;;35.10;27.58;;;23.80;1.00;;;;;;5094039;28;20211;-67
2023/06/29 08:59:51;;;;;;;35.95;27.25;;;23.50;1.00;;;;;;5094187;28;20164;-69
2023/06/29 09:02:17;;;;;;;39.10;28.98;;;23.60;1.00;;;;;;5094392;28;20179;-67
2023/06/29 09:04:44;;;;;;;37.40;27.98;;;23.70;1.00;;;;;;5094228;28;20243;-68
2023/06/29 09:07:10;;;;;;;39.05;27.88;;;23.60;1.00;;;;;;5094195;28;20175;-68
2023/06/29 09:09:36;;;;;;;40.25;28.90;;;23.60;1.00;;;;;;5093284;28;20176;-68
2023/06/29 09:12:01;;;;;;;38.00;27.15;;;23.70;1.00;;;;;;5093745;28;20654;-68
2023/06/29 09:14:32;;;;;;;40.70;28.48;;;23.90;1.00;;;;;;5058246;28;20168;-69
2023/06/29 09:17:01;;;;;;;33.65;27.58;;;24.00;1.00;;;;;;5093904;28;20207;-69
2023/06/29 09:19:27;;;;;;;39.10;28.80;;;24.40;1.00;;;;;;5093378;28;20576;-69
2023/06/29 09:21:53;;;;;;;36.58;29.15;;;24.30;1.00;;;;;;5092726;28;20198;-67
2023/06/29 09:24:20;;;;;;;36.83;27.48;;;24.10;1.00;;;;;;5093489;28;20160;-67
2023/06/29 09:26:53;;;;;;;38.42;28.85;;;23.80;1.00;;;;;;5093547;28;20168;-70
2023/06/29 09:29:19;;;;;;;42.03;29.38;;;23.90;1.00;;;;;;5093529;28;20175;-69
2023/06/29 09:31:58;;;;;;;38.65;28.73;;;23.60;1.00;;;;;;5092980;28;20255;-69
2023/06/29 09:34:26;;;;;;;40.80;30.25;;;23.90;1.00;;;;;;5093601;28;20171;-68
2023/06/29 09:36:52;;;;;;;38.08;28.50;;;24.00;1.00;;;;;;5093215;28;20295;-69
2023/06/29 09:39:19;;;;;;;40.83;27.77;;;23.90;1.00;;;;;;5093243;28;20216;-69
2023/06/29 09:41:58;;;;;;;37.22;29.70;;;23.80;1.00;;;;;;5093448;28;20207;-69
2023/06/29 09:44:25;;;;;;;34.50;28.25;;;23.70;1.00;;;;;;5093125;28;20176;-70
2023/06/29 09:47:04;;;;;;;39.15;29.25;;;23.70;1.00;;;;;;5092610;28;20168;-69
2023/06/29 09:49:30;;;;;;;36.05;28.05;;;23.60;1.00;;;;;;5093766;28;20172;-69
2023/06/29 09:52:04;;;;;;;39.50;28.27;;;23.70;1.00;;;;;;5093103;28;20191;-69
2023/06/29 09:54:36;;;;;;;39.03;29.27;;;23.90;1.00;;;;;;5093028;28;20218;-69
2023/06/29 09:57:05;;;;;;;41.33;29.42;;;23.90;1.00;;;;;;5092880;28;20261;-70
2023/06/29 09:59:31;;;;;;;37.10;28.80;;;23.90;1.00;;;;;;5092814;28;20167;-70
2023/06/29 10:01:57;;;;;;;38.42;28.52;;;24.00;1.00;;;;;;5092557;28;20591;-68
2023/06/29 10:04:26;;;;;;;37.60;29.40;;;23.90;1.00;;;;;;5093303;28;20171;-69
2023/06/29 10:07:08;;;;;;;36.15;28.60;;;24.20;1.00;;;;;;5092781;28;20639;-70
2023/06/29 10:09:40;;;;;;;39.40;28.77;;;24.20;1.00;;;;;;5092683;28;20258;-70
2023/06/29 10:12:08;;;;;;;41.67;30.13;;;24.50;1.00;;;;;;5091867;28;20239;-70
2023/06/29 10:14:35;;;;;;;37.10;27.92;;;24.90;1.00;;;;;;5092634;28;20191;-68
2023/06/29 10:17:02;;;;;;;40.50;29.63;;;25.10;1.00;;;;;;5092813;28;20286;-69
2023/06/29 10:19:31;;;;;;;37.60;29.00;;;25.20;1.00;;;;;;5092536;28;20180;-72
2023/06/29 10:22:05;;;;;;;36.33;29.17;;;25.60;1.00;;;;;;5092372;28;20191;-71
2023/06/29 10:24:36;;;;;;;37.67;29.05;;;25.80;1.00;;;;;;5092879;28;20638;-70
2023/06/29 10:27:04;;;;;;;35.15;29.58;;;26.10;1.00;;;;;;5092240;28;20206;-71
2023/06/29 10:29:29;;;;;;;40.45;28.98;;;26.60;1.00;;;;;;5092370;28;20175;-69
2023/06/29 10:31:57;;;;;;;40.58;29.20;;;26.80;1.00;;;;;;5092916;28;20171;-70
2023/06/29 10:34:26;;;;;;;42.33;31.73;;;26.20;1.00;;;;;;5091952;28;20182;-71
2023/06/29 10:36:54;;;;;;;38.47;29.58;;;26.80;1.00;;;;;;5092901;28;20206;-70
2023/06/29 10:39:38;;;;;;;34.78;28.58;;;27.40;1.00;;;;;;5092140;28;20235;-70
2023/06/29 10:42:39;;;;;;;38.28;29.42;;;27.50;1.00;;;;;;5091874;28;20168;-68
2023/06/29 10:45:20;;;;;;;36.28;29.00;;;28.30;99.90;;;;;;5074392;28;20639;-71
2023/06/29 10:47:55;;;;;;;35.00;28.65;;;28.30;99.90;;;;;;5092657;28;20175;-70
2023/06/29 10:50:31;;;;;;;35.10;30.58;;;28.60;99.90;;;;;;5091799;28;20166;-72
2023/06/29 10:53:01;;;;;;;39.17;30.33;;;28.70;99.90;;;;;;5073970;28;20186;-70
2023/06/29 10:55:37;;;;;;;34.08;29.42;;;28.70;1.00;;;;;;5091931;28;20164;-71
2023/06/29 10:58:12;;;;;;;37.08;30.27;;;28.50;1.00;;;;;;5093997;28;20171;-70
2023/06/29 11:00:38;;;;;;;35.92;29.48;;;28.40;66.60;;;;;;5096300;28;20185;-70
2023/06/29 11:03:04;;;;;;;37.67;30.42;;;28.40;99.90;;;;;;5096604;28;20354;-70
2023/06/29 11:05:33;;;;;;;39.33;30.63;;;28.30;99.90;;;;;;5078074;28;20186;-70
2023/06/29 11:07:59;;;;;;;39.75;33.00;;;28.10;99.90;;;;;;5096408;28;20167;-69
2023/06/29 11:10:24;;;;;;;39.38;29.90;;;27.80;1.00;;;;;;5095438;28;20588;-70
2023/06/29 11:12:51;;;;;;;37.33;30.85;;;27.60;1.00;;;;;;5095971;28;20221;-71
2023/06/29 11:15:18;;;;;;;41.22;31.73;;;28.00;1.00;;;;;;5096081;28;20175;-70
2023/06/29 11:17:45;;;;;;;36.58;31.63;;;27.90;1.00;;;;;;5096313;28;20210;-70
2023/06/29 11:20:15;;;;;;;40.95;32.00;;;27.60;1.00;;;;;;5095708;28;20172;-70
2023/06/29 11:22:42;;;;;;;37.05;31.02;;;28.00;1.00;;;;;;5096109;28;20195;-70
2023/06/29 11:25:09;;;;;;;36.55;30.77;;;28.10;99.90;;;;;;5095952;28;20164;-71
2023/06/29 11:27:35;;;;;;;38.95;31.55;;;28.50;99.90;;;;;;5096460;28;20219;-70
2023/06/29 11:30:07;;;;;;;41.65;33.40;;;28.90;1.00;;;;;;5095529;28;20179;-69
2023/06/29 11:32:33;;;;;;;40.75;33.53;;;28.40;1.00;;;;;;5092099;28;20172;-69
2023/06/29 11:35:00;;;;;;;42.20;33.67;;;27.60;99.90;;;;;;5065007;28;20199;-69
2023/06/29 11:37:27;;;;;;;42.63;34.10;;;27.20;1.00;;;;;;5085723;28;20280;-69
2023/06/29 11:39:53;;;;;;;42.30;34.00;;;27.40;1.00;;;;;;5075727;28;20203;-69
2023/06/29 11:42:21;;;;;;;46.88;34.45;;;27.00;1.00;;;;;;5074491;28;20181;-68
2023/06/29 11:44:59;;;;;;;40.92;33.60;;;27.00;1.00;;;;;;5075260;28;20187;-68
2023/06/29 11:47:25;;;;;;;43.20;33.85;;;27.00;1.00;;;;;;5074811;28;20539;-70
2023/06/29 11:49:50;;;;;;;39.83;32.65;;;27.30;1.00;;;;;;5074496;28;20227;-69
2023/06/29 11:52:16;;;;;;;43.20;33.53;;;27.30;1.00;;;;;;5073768;28;20204;-69
2023/06/29 11:54:43;;;;;;;44.95;35.25;;;27.50;1.00;;;;;;5074367;28;20180;-68
2023/06/29 11:57:08;;;;;;;49.28;34.17;;;27.00;1.00;;;;;;5073944;28;20208;-68
2023/06/29 11:59:38;;;;;;;50.35;34.55;;;26.80;1.00;;;;;;5074753;28;20646;-69
2023/06/29 12:02:04;;;;;;;43.63;34.90;;;27.00;1.00;;;;;;5057899;28;20169;-69
2023/06/29 12:04:30;;;;;;;48.03;36.13;;;26.70;1.00;;;;;;5074775;28;20242;-69
2023/06/29 12:06:56;;;;;;;44.30;35.15;;;26.30;1.00;;;;;;5073642;28;20556;-70
2023/06/29 12:09:48;;;;;;;46.55;33.40;;;26.50;1.00;;;;;;5073280;28;20172;-69
2023/06/29 12:12:13;;;;;;;43.13;33.97;;;26.40;1.00;;;;;;5054993;28;20195;-70
2023/06/29 12:14:39;;;;;;;43.15;34.60;;;27.20;1.00;;;;;;5074002;28;20176;-68
2023/06/29 12:17:04;;;;;;;40.83;32.42;;;27.40;1.00;;;;;;5074503;28;20639;-70
2023/06/29 12:19:34;;;;;;;42.80;33.55;;;27.60;1.00;;;;;;5074024;28;20237;-70
2023/06/29 12:22:00;;;;;;;44.13;35.38;;;27.80;1.00;;;;;;5072923;28;20249;-69
2023/06/29 12:24:26;;;;;;;41.22;32.65;;;27.70;1.00;;;;;;5074011;28;20216;-68
2023/06/29 12:26:51;;;;;;;43.72;33.40;;;27.50;1.00;;;;;;5074538;28;20314;-70
2023/06/29 12:29:17;;;;;;;44.22;33.95;;;27.40;1.00;;;;;;5074043;28;20255;-69